Bushong, Kansas
Current Conditions -  °F | °C
As of 4:26 AM on Saturday 25 Oct 2014 (Local Time) from KEMP Reporting Station
Haze Haze  
Wind Chill: 59°   Ceiling: Unl
Heat Index: 59°   Visibility: 2.5mi
Dew Point: 59°   Wind: 0mph
Humidity: 100%   Direction: NA
Pressure: 30.03"   Gusts: NA
Location:  38.6329°N, 96.2407°W
Report Text: KEMP 250926Z AUTO 00000KT 2 1/2SM BR CLR 15/15 A3003 RMK AO2 T01500150
Loading
Personal Weather Stations






























Interactive Weather Map
Tropical Storm Tracking
New forecast layout! Learn more

10-Day Weather Forecast

Advertisements
Track Severe Weather on mobile